Hamburg Airport, Germany

8:39 PM CEST on July 26, 2016 (GMT +0200)
Hamburg | | Change Station

Elev 52 ft 53.63 °N, 9.99 °E | Updated 19 minutes ago

Partly Cloudy
Partly Cloudy
68 °F
Feels Like 68 °F
N
4
Wind Variable Wind from NNW

Today
High -- | Low -- °F
--% Chance of Precip.
Yesterday
High -- | Low -- °F
Precip. -- in
Pressure 30.09 in
Visibility 6.2 miles
Clouds Few 4600 ft
Dew Point 57 °F
Humidity 68%
Rainfall 0.00 in
Snow Depth Not available.
5:25 AM 9:26 PM
Waning Gibbous, 52% visible
METAR EDDH 261820Z 34003KT 9999 FEW046 20/14 Q1019 NOSIG
Pressure 30.09 in
Visibility 6.2 miles
Clouds Few 4600 ft
Dew Point 57 °F
Humidity 68%
Rainfall 0.00 in
Snow Depth Not available.
5:25 AM 9:26 PM
Waning Gibbous, 52% visible
METAR EDDH 261820Z 34003KT 9999 FEW046 20/14 Q1019 NOSIG

10-Day Weather Forecast

×

Almanac

Astronomy

Jul. 26, 2016 Rise Set
Actual Time
Civil Twilight
Nautical Twilight
Astronomical Twilight
Moon
Length of Visible Light
Length of Day
Tomorrow will be .
, % of the Moon is Illuminated

Today's Extremes

Country Highs Country Lows

Community

WunderPhotos

Upload Photos

1,927,651 photos uploaded!

WunderBlog® & News

Nearby

Air Quality

  Air Quality AQ Index Pollutant
Not available.

Snow Depth

Station Depth Elevation

Earthquake Activity

City Distance Mag. Time & Date
Minimum magnitude displayed is 2.5.

Coastal Water Temperatures

Place Temperature

Stations

Nearby Weather Stations

Station Location Temp. Windchill Dew Point Humidity Wind Precip. Elev Updated Type